Time;durP1;ratioP1;P1;durP2;ratioP2;P2;SDS_P1;SDS_P2;PMS_P1;PMS_P2;Temp;Humidity;BMP_temperature;BMP_pressure;BME280_temperature;BME280_humidity;BME280_pressure;Samples;Min_cycle;Max_cycle;Signal;HPM_P1;HPM_P2
2022/05/18 00:00:53;;;;;;;2.17;1.40;;;20.70;56.60;;;;;;5005974;28;20068;-48
2022/05/18 00:03:29;;;;;;;3.95;1.40;;;20.80;57.30;;;;;;5029792;28;20079;-47
2022/05/18 00:06:00;;;;;;;2.63;1.48;;;20.70;57.50;;;;;;5029432;28;20523;-47
2022/05/18 00:08:27;;;;;;;2.20;1.58;;;20.70;57.60;;;;;;5029973;28;20068;-50
2022/05/18 00:10:54;;;;;;;2.55;1.70;;;20.60;57.50;;;;;;5029776;28;20045;-47
2022/05/18 00:13:24;;;;;;;2.60;1.40;;;20.60;57.50;;;;;;5030177;28;20037;-49
2022/05/18 00:15:52;;;;;;;2.30;1.58;;;20.60;57.60;;;;;;5029740;28;20050;-46
2022/05/18 00:18:19;;;;;;;3.65;1.88;;;20.60;57.60;;;;;;5029682;28;20073;-47
2022/05/18 00:20:46;;;;;;;2.40;2.20;;;20.50;57.80;;;;;;5030962;28;20073;-50
2022/05/18 00:23:13;;;;;;;9.00;2.40;;;20.50;58.00;;;;;;5031426;28;20041;-48
2022/05/18 00:25:41;;;;;;;3.42;1.95;;;20.50;58.10;;;;;;5029047;28;20125;-50
2022/05/18 00:28:13;;;;;;;3.10;1.48;;;20.50;58.10;;;;;;5030391;28;20096;-49
2022/05/18 00:30:42;;;;;;;2.63;1.25;;;20.50;58.20;;;;;;5029966;28;20072;-49
2022/05/18 00:33:12;;;;;;;2.03;1.25;;;20.50;58.30;;;;;;5030004;28;20120;-49
2022/05/18 00:35:40;;;;;;;1.77;1.67;;;20.40;58.20;;;;;;5032584;28;20501;-51
2022/05/18 00:38:08;;;;;;;1.80;1.70;;;20.50;58.20;;;;;;5033370;28;20513;-47
2022/05/18 00:40:39;;;;;;;2.03;1.27;;;20.40;58.10;;;;;;5025078;28;20045;-50
2022/05/18 00:43:17;;;;;;;1.63;1.52;;;20.40;58.30;;;;;;5034180;28;20125;-50
2022/05/18 00:45:44;;;;;;;2.45;1.40;;;20.40;58.70;;;;;;5032061;28;20037;-46
2022/05/18 00:48:13;;;;;;;1.67;1.42;;;20.30;58.10;;;;;;5033924;28;20472;-48
2022/05/18 00:50:43;;;;;;;1.38;1.27;;;20.40;58.20;;;;;;5033662;28;20405;-50
2022/05/18 00:53:19;;;;;;;2.25;1.35;;;20.30;58.40;;;;;;5032683;28;20513;-46
2022/05/18 00:56:00;;;;;;;3.05;1.95;;;20.30;58.40;;;;;;5031864;28;20048;-50
2022/05/18 00:58:40;;;;;;;2.38;1.63;;;20.20;58.80;;;;;;5033687;28;20405;-50
2022/05/18 01:01:09;;;;;;;2.15;1.55;;;20.20;59.00;;;;;;5033369;28;20042;-51
2022/05/18 01:03:40;;;;;;;2.08;1.70;;;20.20;58.40;;;;;;5023779;28;20045;-47
2022/05/18 01:06:25;;;;;;;1.57;1.47;;;20.10;58.60;;;;;;5032498;28;20467;-50
2022/05/18 01:09:02;;;;;;;2.13;1.77;;;20.10;59.00;;;;;;5027916;28;20042;-49
2022/05/18 01:11:36;;;;;;;1.70;1.30;;;20.10;58.70;;;;;;5032618;28;20055;-46
2022/05/18 01:14:13;;;;;;;1.98;1.70;;;20.00;58.40;;;;;;5031787;28;20080;-48
2022/05/18 01:16:40;;;;;;;1.48;1.38;;;20.00;58.70;;;;;;5030053;28;20045;-45
2022/05/18 01:19:23;;;;;;;1.65;1.50;;;20.00;58.40;;;;;;5033281;28;20452;-47
2022/05/18 01:22:14;;;;;;;2.70;1.58;;;20.00;58.60;;;;;;5018595;28;20366;-46
2022/05/18 01:25:04;;;;;;;1.20;1.15;;;19.90;59.00;;;;;;5031622;28;20037;-48
2022/05/18 01:27:36;;;;;;;2.33;1.38;;;19.90;58.80;;;;;;4976291;28;20050;-50
2022/05/18 01:30:08;;;;;;;2.15;1.48;;;19.90;58.40;;;;;;5024746;28;20413;-47
2022/05/18 01:32:45;;;;;;;2.70;1.60;;;19.80;58.60;;;;;;5026872;28;20072;-47
2022/05/18 01:35:19;;;;;;;1.67;1.50;;;19.80;58.70;;;;;;5028859;28;20091;-47
2022/05/18 01:37:47;;;;;;;1.63;1.52;;;19.80;59.00;;;;;;5033090;28;20046;-50
2022/05/18 01:40:25;;;;;;;2.20;1.50;;;19.80;58.80;;;;;;5030099;28;20049;-47
2022/05/18 01:43:01;;;;;;;1.40;1.30;;;19.70;59.20;;;;;;5019769;28;20041;-46
2022/05/18 01:45:28;;;;;;;1.88;1.48;;;19.70;59.10;;;;;;5028813;28;20076;-47
2022/05/18 01:48:13;;;;;;;2.70;1.38;;;19.60;58.80;;;;;;5032666;28;20037;-48
2022/05/18 01:50:51;;;;;;;2.08;1.60;;;19.60;59.30;;;;;;5032568;28;20556;-50
2022/05/18 01:53:24;;;;;;;4.07;1.80;;;19.60;58.90;;;;;;5031182;28;20564;-49
2022/05/18 01:55:53;;;;;;;1.92;1.48;;;19.60;59.00;;;;;;5031810;28;20068;-50
2022/05/18 01:58:22;;;;;;;1.92;1.80;;;19.50;58.90;;;;;;5032685;28;20056;-49
2022/05/18 02:00:51;;;;;;;1.45;1.35;;;19.50;59.00;;;;;;5031574;28;20038;-47
2022/05/18 02:03:22;;;;;;;2.05;1.85;;;19.50;59.00;;;;;;5031917;28;20112;-46
2022/05/18 02:05:52;;;;;;;2.53;1.73;;;19.50;59.00;;;;;;5031205;28;20076;-50
2022/05/18 02:08:24;;;;;;;2.50;1.55;;;19.40;59.10;;;;;;5032055;28;20038;-47
2022/05/18 02:10:51;;;;;;;1.92;1.77;;;19.40;58.90;;;;;;5030718;28;20107;-49
2022/05/18 02:13:19;;;;;;;1.73;1.63;;;19.40;59.10;;;;;;5032170;28;20521;-47
2022/05/18 02:15:46;;;;;;;2.00;1.88;;;19.40;58.90;;;;;;5061732;23;20046;-49
2022/05/18 02:18:15;;;;;;;1.48;1.38;;;19.30;59.00;;;;;;5033444;28;20042;-44
2022/05/18 02:20:41;;;;;;;2.88;1.35;;;19.30;58.90;;;;;;5054644;28;20504;-47
2022/05/18 02:23:09;;;;;;;1.58;1.27;;;19.30;58.90;;;;;;5045649;28;20033;-46
2022/05/18 02:25:41;;;;;;;1.52;1.42;;;19.20;59.00;;;;;;5062447;28;20403;-50
2022/05/18 02:28:08;;;;;;;3.40;1.80;;;19.20;59.00;;;;;;5065754;28;20041;-45
2022/05/18 02:30:36;;;;;;;2.05;1.77;;;19.10;59.00;;;;;;5063755;28;20065;-49
2022/05/18 02:33:08;;;;;;;1.92;1.70;;;19.10;59.00;;;;;;5053272;28;20103;-47
2022/05/18 02:35:40;;;;;;;1.77;1.67;;;19.10;59.20;;;;;;5064867;28;20492;-47
2022/05/18 02:38:09;;;;;;;2.63;1.73;;;19.10;59.10;;;;;;5064810;28;20086;-47
2022/05/18 02:40:36;;;;;;;1.63;1.52;;;19.00;59.10;;;;;;5068974;28;20651;-49
2022/05/18 02:43:05;;;;;;;1.38;1.27;;;19.00;59.20;;;;;;5052919;28;20044;-45
2022/05/18 02:45:32;;;;;;;1.55;1.45;;;19.00;59.20;;;;;;5059734;28;20560;-49
2022/05/18 02:48:01;;;;;;;2.20;1.70;;;18.90;59.20;;;;;;5071924;28;20086;-49
2022/05/18 02:50:33;;;;;;;1.75;1.52;;;18.90;59.20;;;;;;5072626;28;20048;-45
2022/05/18 02:53:00;;;;;;;2.42;1.52;;;18.90;59.90;;;;;;5064127;28;20068;-48
2022/05/18 02:58:12;;;;;;;2.78;1.70;;;18.80;59.40;;;;;;5073116;28;20083;-48
2022/05/18 03:00:42;;;;;;;1.85;1.75;;;18.80;59.40;;;;;;5062704;28;20045;-46
2022/05/18 03:03:09;;;;;;;2.45;1.67;;;18.80;59.60;;;;;;5053038;28;20064;-46
2022/05/18 03:05:38;;;;;;;1.92;1.70;;;18.80;59.50;;;;;;5056006;28;20029;-45
2022/05/18 03:08:06;;;;;;;1.75;1.65;;;18.70;59.60;;;;;;5071382;28;20105;-48
2022/05/18 03:10:36;;;;;;;1.90;1.70;;;18.70;59.60;;;;;;5064289;28;20086;-50
2022/05/18 03:13:07;;;;;;;2.72;2.25;;;18.70;59.80;;;;;;5072745;28;20056;-47
2022/05/18 03:15:35;;;;;;;2.67;1.98;;;18.70;59.50;;;;;;5056219;28;20041;-46
2022/05/18 03:18:06;;;;;;;2.20;1.60;;;18.60;59.50;;;;;;5068585;28;20047;-49
2022/05/18 03:23:33;;;;;;;3.72;1.67;;;18.60;59.40;;;;;;5064888;28;20656;-48
2022/05/18 03:26:23;;;;;;;2.50;1.95;;;18.60;59.50;;;;;;5067130;28;20074;-49
2022/05/18 03:28:59;;;;;;;1.73;1.60;;;18.60;60.00;;;;;;5068631;28;20036;-46
2022/05/18 03:31:30;;;;;;;2.03;1.55;;;18.50;59.60;;;;;;5053905;28;20090;-45
2022/05/18 03:34:00;;;;;;;1.70;1.60;;;18.50;59.60;;;;;;5037843;28;20411;-50
2022/05/18 03:36:29;;;;;;;3.33;1.40;;;18.50;59.60;;;;;;5072072;28;20129;-49
2022/05/18 03:38:56;;;;;;;2.33;1.38;;;18.40;59.60;;;;;;5064662;28;20468;-49
2022/05/18 03:41:23;;;;;;;2.15;1.67;;;18.40;59.60;;;;;;5068368;28;20503;-46
2022/05/18 03:43:53;;;;;;;2.10;1.95;;;18.40;59.60;;;;;;5047057;28;20507;-47
2022/05/18 03:46:22;;;;;;;3.08;1.58;;;18.30;59.80;;;;;;5061253;28;20049;-50
2022/05/18 03:48:52;;;;;;;2.40;2.20;;;18.30;59.70;;;;;;5063935;28;20395;-48
2022/05/18 03:51:20;;;;;;;2.47;1.63;;;18.30;59.60;;;;;;5062129;28;20106;-49
2022/05/18 03:53:47;;;;;;;2.40;1.98;;;18.20;59.60;;;;;;5064196;28;20348;-47
2022/05/18 03:56:16;;;;;;;1.60;1.50;;;18.20;59.70;;;;;;5046559;28;20094;-51
2022/05/18 03:58:46;;;;;;;3.38;1.98;;;18.20;60.00;;;;;;5063387;28;20033;-48
2022/05/18 04:01:17;;;;;;;2.65;1.77;;;18.20;60.00;;;;;;5064248;28;20102;-45
2022/05/18 04:03:48;;;;;;;2.03;1.42;;;18.20;60.10;;;;;;5066000;28;20040;-45
2022/05/18 04:06:21;;;;;;;2.53;2.33;;;18.10;60.10;;;;;;5061275;28;20115;-47
2022/05/18 04:08:49;;;;;;;2.33;2.15;;;18.10;60.80;;;;;;5062107;28;20094;-47
2022/05/18 04:11:23;;;;;;;1.88;1.70;;;18.10;60.20;;;;;;5041176;28;20051;-46
2022/05/18 04:13:51;;;;;;;2.50;1.63;;;18.10;60.30;;;;;;5061595;28;20048;-46
2022/05/18 04:16:21;;;;;;;2.13;2.03;;;18.10;60.30;;;;;;5058634;28;20110;-46
2022/05/18 04:18:56;;;;;;;;;;;18.00;60.40;;;;;;5065652;28;20431;-50
2022/05/18 04:21:23;;;;;;;;;;;18.10;60.10;;;;;;5070468;28;19920;-47
2022/05/18 04:23:56;;;;;;;;;;;18.10;59.70;;;;;;5053631;28;19925;-48
2022/05/18 04:26:23;;;;;;;1.95;1.85;;;18.20;59.40;;;;;;5060831;28;20319;-48
2022/05/18 04:28:54;;;;;;;2.67;1.73;;;18.10;59.60;;;;;;5065745;28;20044;-50
2022/05/18 04:31:22;;;;;;;2.03;1.67;;;18.10;60.30;;;;;;5070150;28;20097;-45
2022/05/18 04:33:49;;;;;;;1.58;1.42;;;18.10;60.40;;;;;;5063388;28;20112;-47
2022/05/18 04:36:16;;;;;;;2.17;1.70;;;18.10;60.80;;;;;;5071078;28;20543;-47
2022/05/18 04:38:45;;;;;;;1.90;1.73;;;18.10;61.00;;;;;;5071135;28;20041;-47
2022/05/18 04:41:12;;;;;;;3.08;2.17;;;18.10;61.20;;;;;;5058350;28;20138;-45
2022/05/18 04:43:40;;;;;;;2.22;1.67;;;18.10;61.60;;;;;;5053521;28;20044;-47
2022/05/18 04:46:07;;;;;;;2.95;1.83;;;18.10;61.70;;;;;;5063623;28;20111;-45
2022/05/18 04:48:37;;;;;;;4.90;2.05;;;18.20;62.00;;;;;;5048906;28;20049;-46
2022/05/18 04:51:11;;;;;;;2.53;1.95;;;18.20;62.50;;;;;;5060802;28;20044;-47
2022/05/18 04:53:37;;;;;;;1.90;1.80;;;18.20;62.30;;;;;;5056914;28;20072;-49
2022/05/18 04:56:05;;;;;;;2.50;1.65;;;18.30;62.50;;;;;;5066827;28;20470;-49
2022/05/18 04:58:32;;;;;;;4.20;2.60;;;18.30;62.70;;;;;;5065179;28;20123;-46
2022/05/18 05:01:06;;;;;;;2.90;2.10;;;18.30;62.80;;;;;;5063908;28;20084;-48
2022/05/18 05:03:40;;;;;;;3.75;2.42;;;18.40;63.20;;;;;;5055876;28;20401;-46
2022/05/18 05:06:09;;;;;;;;;;;18.40;63.00;;;;;;5047355;28;20061;-50
2022/05/18 05:08:37;;;;;;;2.38;1.88;;;18.50;62.70;;;;;;5059951;28;20562;-47
2022/05/18 05:11:11;;;;;;;2.50;2.05;;;18.60;62.70;;;;;;5066586;28;20063;-47
2022/05/18 05:13:39;;;;;;;4.28;2.30;;;18.60;63.00;;;;;;5059665;28;20052;-46
2022/05/18 05:16:08;;;;;;;2.88;2.25;;;18.60;63.30;;;;;;5062476;28;20052;-48
2022/05/18 05:18:38;;;;;;;4.95;2.28;;;18.70;63.60;;;;;;5058905;28;20522;-46
2022/05/18 05:21:05;;;;;;;4.85;2.20;;;18.80;63.60;;;;;;5068194;28;20060;-47
2022/05/18 05:23:33;;;;;;;3.15;2.83;;;18.80;63.90;;;;;;5052435;28;20054;-49
2022/05/18 05:26:00;;;;;;;4.60;2.50;;;18.90;64.20;;;;;;5069442;28;20103;-49
2022/05/18 05:28:31;;;;;;;6.13;2.50;;;18.90;64.30;;;;;;5067620;28;20048;-47
2022/05/18 05:31:02;;;;;;;4.93;2.60;;;19.00;64.80;;;;;;5068821;28;20066;-47
2022/05/18 05:33:30;;;;;;;3.42;2.50;;;19.10;65.00;;;;;;5061624;28;20112;-48
2022/05/18 05:35:58;;;;;;;4.68;2.75;;;19.10;64.70;;;;;;5058053;28;20055;-50
2022/05/18 05:38:25;;;;;;;3.50;2.63;;;19.20;64.90;;;;;;5069824;28;20574;-46
2022/05/18 05:40:52;;;;;;;4.65;2.60;;;19.30;64.80;;;;;;5064960;28;20056;-47
2022/05/18 05:43:19;;;;;;;8.27;3.55;;;19.30;65.00;;;;;;5070168;28;20040;-46
2022/05/18 05:46:04;;;;;;;7.82;3.35;;;19.40;64.90;;;;;;5066148;28;20064;-49
2022/05/18 05:48:33;;;;;;;4.25;2.92;;;19.50;65.70;;;;;;5055189;28;20075;-47
2022/05/18 05:51:01;;;;;;;6.03;3.25;;;19.60;64.40;;;;;;5050875;28;20535;-48
2022/05/18 05:53:32;;;;;;;5.82;2.67;;;19.70;64.60;;;;;;5049978;28;20041;-48
2022/05/18 05:56:00;;;;;;;14.35;3.72;;;19.70;64.50;;;;;;5067192;28;20488;-47
2022/05/18 05:58:33;;;;;;;7.28;2.97;;;19.90;64.60;;;;;;5066247;28;20091;-48
2022/05/18 06:01:01;;;;;;;3.97;2.58;;;19.90;64.80;;;;;;5065945;28;20132;-47
2022/05/18 06:03:30;;;;;;;6.00;2.58;;;20.00;64.40;;;;;;5069643;28;20048;-50
2022/05/18 06:05:57;;;;;;;5.68;3.15;;;20.10;64.50;;;;;;5063001;28;20072;-48
2022/05/18 06:08:25;;;;;;;6.30;3.15;;;20.20;64.40;;;;;;5060905;28;20520;-47
2022/05/18 06:10:52;;;;;;;4.57;2.85;;;20.20;65.20;;;;;;5052060;28;20037;-46
2022/05/18 06:13:20;;;;;;;5.57;2.58;;;20.30;64.00;;;;;;5051523;28;20041;-46
2022/05/18 06:15:48;;;;;;;7.50;2.90;;;20.40;64.00;;;;;;5065786;28;20107;-49
2022/05/18 06:18:18;;;;;;;6.85;3.00;;;20.50;63.80;;;;;;5070410;28;20047;-48
2022/05/18 06:20:48;;;;;;;8.35;2.92;;;20.60;64.00;;;;;;5066011;28;20532;-48
2022/05/18 06:23:15;;;;;;;4.75;2.90;;;20.60;63.20;;;;;;5071140;28;20036;-47
2022/05/18 06:25:51;;;;;;;6.95;3.03;;;20.70;63.70;;;;;;5071825;28;20131;-49
2022/05/18 06:28:20;;;;;;;4.28;2.35;;;20.80;63.00;;;;;;5062300;28;20041;-47
2022/05/18 06:30:48;;;;;;;3.08;2.60;;;20.90;62.50;;;;;;5055398;28;20116;-48
2022/05/18 06:33:17;;;;;;;5.53;2.55;;;21.00;62.80;;;;;;5069103;28;20520;-48
2022/05/18 06:35:46;;;;;;;4.00;2.47;;;21.00;62.10;;;;;;5071668;28;20102;-47
2022/05/18 06:38:15;;;;;;;6.18;2.72;;;21.10;62.00;;;;;;5064288;28;20102;-46
2022/05/18 06:43:27;;;;;;;3.58;2.95;;;21.30;61.80;;;;;;5070771;28;20083;-49
2022/05/18 06:45:54;;;;;;;6.47;2.92;;;21.40;61.50;;;;;;5063467;28;20072;-49
2022/05/18 06:48:22;;;;;;;7.10;3.15;;;21.40;61.50;;;;;;5072074;28;20047;-48
2022/05/18 06:51:12;;;;;;;5.18;2.40;;;21.50;61.00;;;;;;5069726;28;20048;-50
2022/05/18 06:53:41;;;;;;;4.07;2.90;;;21.60;61.00;;;;;;5065268;28;20092;-47
2022/05/18 06:56:08;;;;;;;4.47;2.40;;;21.70;60.70;;;;;;5051308;28;20416;-49
2022/05/18 06:58:35;;;;;;;5.68;2.88;;;21.80;60.00;;;;;;5055635;28;20036;-49
2022/05/18 07:01:07;;;;;;;3.13;2.50;;;21.80;59.80;;;;;;5071416;28;20039;-50
2022/05/18 07:03:34;;;;;;;3.92;3.30;;;21.90;59.50;;;;;;5068895;28;20519;-51
2022/05/18 07:06:04;;;;;;;2.78;2.03;;;22.00;59.10;;;;;;5062792;28;20040;-47
2022/05/18 07:08:31;;;;;;;3.50;2.20;;;22.10;58.50;;;;;;5071336;28;20036;-51
2022/05/18 07:11:00;;;;;;;4.05;2.85;;;22.20;58.20;;;;;;5070972;28;20040;-48
2022/05/18 07:13:28;;;;;;;2.85;2.40;;;22.30;58.50;;;;;;5068825;28;20048;-51
2022/05/18 07:15:54;;;;;;;3.60;2.30;;;22.40;58.20;;;;;;5063425;28;20499;-48
2022/05/18 07:18:30;;;;;;;4.93;2.35;;;22.40;57.50;;;;;;5068232;28;20055;-48
2022/05/18 07:20:58;;;;;;;3.05;2.28;;;22.60;57.00;;;;;;5066500;28;20048;-48
2022/05/18 07:23:26;;;;;;;3.20;2.15;;;22.60;56.90;;;;;;5062687;28;20041;-46
2022/05/18 07:25:55;;;;;;;2.85;2.58;;;22.70;56.70;;;;;;5068168;28;20082;-48
2022/05/18 07:28:22;;;;;;;3.58;2.72;;;22.80;57.40;;;;;;5070713;28;20064;-47
2022/05/18 07:30:54;;;;;;;4.38;2.72;;;22.90;56.80;;;;;;5070465;28;20126;-47
2022/05/18 07:33:24;;;;;;;2.92;2.63;;;23.00;57.20;;;;;;5062801;28;20041;-47
2022/05/18 07:35:53;;;;;;;6.65;2.55;;;23.10;56.90;;;;;;5066035;28;20090;-47
2022/05/18 07:38:30;;;;;;;4.93;3.20;;;23.20;56.60;;;;;;5063140;28;20044;-48
2022/05/18 07:41:08;;;;;;;3.75;2.33;;;23.20;56.60;;;;;;5071157;28;20040;-47
2022/05/18 07:43:35;;;;;;;3.95;2.58;;;23.30;56.10;;;;;;5067039;28;20037;-48
2022/05/18 07:46:04;;;;;;;3.72;2.72;;;23.40;55.50;;;;;;5063312;28;20393;-50
2022/05/18 07:48:31;;;;;;;3.00;2.72;;;23.50;55.20;;;;;;5067746;28;20135;-49
2022/05/18 07:51:05;;;;;;;2.78;2.30;;;23.60;55.10;;;;;;5070411;28;20040;-49
2022/05/18 07:53:34;;;;;;;2.65;2.45;;;23.70;54.80;;;;;;5062157;28;20036;-46
2022/05/18 07:56:08;;;;;;;4.90;2.33;;;23.80;54.40;;;;;;5070595;28;20040;-48
2022/05/18 07:58:41;;;;;;;2.30;2.10;;;23.90;54.80;;;;;;5070473;28;20037;-47
2022/05/18 08:01:09;;;;;;;2.88;2.47;;;24.10;54.90;;;;;;5053836;28;20564;-47
2022/05/18 08:03:39;;;;;;;2.42;2.20;;;24.20;55.20;;;;;;5050760;28;20045;-47
2022/05/18 08:06:06;;;;;;;3.10;2.38;;;24.40;53.70;;;;;;5050599;28;20045;-48
2022/05/18 08:08:35;;;;;;;2.47;2.30;;;24.50;53.20;;;;;;5070404;28;20040;-48
2022/05/18 08:16:35;;;;;;;2.15;2.00;;;24.90;52.70;;;;;;5048311;23;20062;-51
2022/05/18 08:19:12;;;;;;;2.80;2.25;;;25.00;53.30;;;;;;5036851;28;20461;-52
2022/05/18 08:21:38;;;;;;;2.63;2.20;;;25.10;52.00;;;;;;5034811;28;20496;-53
2022/05/18 08:24:06;;;;;;;3.03;2.35;;;25.20;52.20;;;;;;5033677;28;20037;-52
2022/05/18 08:26:33;;;;;;;5.18;2.53;;;25.30;51.80;;;;;;5009483;28;20042;-49
2022/05/18 08:29:04;;;;;;;2.92;2.13;;;25.40;50.60;;;;;;5029266;28;20393;-53
2022/05/18 08:31:31;;;;;;;4.25;1.95;;;25.50;49.80;;;;;;5028599;28;20119;-49
2022/05/18 08:34:08;;;;;;;2.38;2.17;;;25.50;49.80;;;;;;5028297;28;20041;-52
2022/05/18 08:36:38;;;;;;;2.90;2.70;;;25.60;49.50;;;;;;5026894;28;20061;-52
2022/05/18 08:39:08;;;;;;;3.10;2.10;;;25.60;50.10;;;;;;5012804;28;20068;-52
2022/05/18 08:41:49;;;;;;;4.93;2.40;;;25.60;50.30;;;;;;5029660;28;20056;-48
2022/05/18 08:44:34;;;;;;;2.88;2.58;;;25.70;49.80;;;;;;5028806;28;20033;-52
2022/05/18 08:47:16;;;;;;;4.22;2.78;;;25.70;49.10;;;;;;5026058;28;20493;-52
2022/05/18 08:49:57;;;;;;;4.50;2.67;;;25.80;49.40;;;;;;5023569;28;20053;-52
2022/05/18 08:52:48;;;;;;;2.60;2.38;;;25.80;50.00;;;;;;5030242;28;20363;-52
2022/05/18 08:55:31;;;;;;;4.70;1.95;;;25.90;49.10;;;;;;5030146;28;20037;-53
2022/05/18 08:58:02;;;;;;;8.77;3.53;;;25.90;49.40;;;;;;5033801;28;20049;-52
2022/05/18 09:00:38;;;;;;;4.10;2.17;;;25.90;48.80;;;;;;5023205;28;20041;-51
2022/05/18 09:03:24;;;;;;;3.38;2.70;;;26.00;48.40;;;;;;5020569;28;20068;-52
2022/05/18 09:06:11;;;;;;;4.97;2.97;;;26.00;48.90;;;;;;5027496;28;20040;-52
2022/05/18 09:08:43;;;;;;;3.17;2.60;;;26.10;48.50;;;;;;5026818;28;20037;-53
2022/05/18 09:11:19;;;;;;;3.50;3.08;;;26.10;48.90;;;;;;5034321;28;20042;-51
2022/05/18 09:13:48;;;;;;;6.10;3.40;;;26.10;48.50;;;;;;5032942;28;20041;-52
2022/05/18 09:16:44;;;;;;;4.10;3.20;;;26.20;48.40;;;;;;5030769;28;20169;-52
2022/05/18 09:19:37;;;;;;;2.72;2.33;;;26.20;47.80;;;;;;5034206;28;20140;-51
2022/05/18 09:22:27;;;;;;;3.63;2.85;;;26.30;48.20;;;;;;5037954;28;20526;-52
2022/05/18 09:24:56;;;;;;;4.30;2.60;;;26.30;48.00;;;;;;5032615;28;20501;-50
2022/05/18 09:27:51;;;;;;;3.15;2.85;;;26.40;47.50;;;;;;5034054;28;20493;-52
2022/05/18 09:30:39;;;;;;;4.70;3.13;;;26.40;46.80;;;;;;5033348;28;20049;-52
2022/05/18 09:33:39;;;;;;;4.38;2.88;;;26.50;47.80;;;;;;5029936;28;20156;-53
2022/05/18 09:36:37;;;;;;;6.35;2.80;;;26.50;47.10;;;;;;5029162;28;20045;-49
2022/05/18 09:39:08;;;;;;;2.85;2.33;;;26.60;46.90;;;;;;5014599;28;20104;-52
2022/05/18 09:41:47;;;;;;;3.33;2.20;;;26.60;46.90;;;;;;5032125;28;20115;-50
2022/05/18 09:44:21;;;;;;;3.40;2.40;;;26.60;46.40;;;;;;5033195;28;20116;-50
2022/05/18 09:46:48;;;;;;;;;;;26.70;46.10;;;;;;5033397;28;20552;-52
2022/05/18 09:49:24;;;;;;;2.85;2.30;;;26.80;47.30;;;;;;5017576;28;19921;-52
2022/05/18 09:51:55;;;;;;;5.28;2.67;;;26.80;45.70;;;;;;5032036;28;20096;-52
2022/05/18 09:54:23;;;;;;;3.53;2.72;;;26.80;46.20;;;;;;5030494;28;20045;-52
2022/05/18 09:57:01;;;;;;;2.50;2.25;;;26.90;46.70;;;;;;5014841;28;20037;-53
2022/05/18 09:59:37;;;;;;;4.03;2.55;;;26.90;46.70;;;;;;5032248;28;20041;-53
2022/05/18 10:07:50;;;;;;;3.33;2.40;;;27.00;46.40;;;;;;5031850;28;20065;-53
2022/05/18 10:10:32;;;;;;;3.75;2.63;;;27.10;46.30;;;;;;5031664;28;20042;-53
2022/05/18 10:13:12;;;;;;;4.28;2.30;;;27.10;46.60;;;;;;5032488;28;20112;-53
2022/05/18 10:16:16;;;;;;;3.15;2.85;;;27.10;45.90;;;;;;5031265;28;20055;-52
2022/05/18 10:18:54;;;;;;;4.28;2.53;;;27.20;46.20;;;;;;5031137;28;20049;-53
2022/05/18 10:21:30;;;;;;;3.72;2.55;;;27.20;45.90;;;;;;5032470;28;20045;-52
2022/05/18 10:24:10;;;;;;;4.80;2.58;;;27.30;45.90;;;;;;5032479;28;20040;-52
2022/05/18 10:26:40;;;;;;;3.67;2.60;;;27.30;45.90;;;;;;5031074;28;20092;-48
2022/05/18 10:29:13;;;;;;;3.22;2.17;;;27.40;45.30;;;;;;5032652;28;20501;-52
2022/05/18 10:32:00;;;;;;;3.15;2.30;;;27.40;45.20;;;;;;5032233;28;20527;-52
2022/05/18 10:34:33;;;;;;;4.65;1.73;;;27.40;45.00;;;;;;5032027;28;20045;-53
2022/05/18 10:37:02;;;;;;;3.72;2.22;;;27.50;44.60;;;;;;5031236;28;20397;-51
2022/05/18 10:39:32;;;;;;;4.05;2.47;;;27.50;45.40;;;;;;5032420;28;20045;-52
2022/05/18 10:42:01;;;;;;;3.80;2.03;;;27.60;45.70;;;;;;5032161;28;20049;-52
2022/05/18 10:44:36;;;;;;;2.60;2.38;;;27.60;45.70;;;;;;5030786;28;20118;-52
2022/05/18 10:47:18;;;;;;;2.63;2.00;;;27.70;44.00;;;;;;5031026;28;20037;-52
2022/05/18 10:49:45;;;;;;;;;;;27.80;43.70;;;;;;5031996;28;20049;-49
2022/05/18 10:52:38;;;;;;;3.33;2.33;;;28.00;45.10;;;;;;5030180;28;19921;-53
2022/05/18 10:55:14;;;;;;;4.65;2.20;;;28.10;44.40;;;;;;5025695;28;20532;-53
2022/05/18 10:57:54;;;;;;;2.88;1.70;;;28.20;44.40;;;;;;5029642;28;20076;-52
2022/05/18 11:00:27;;;;;;;3.08;2.10;;;28.30;44.10;;;;;;5030919;28;20037;-48
2022/05/18 11:03:02;;;;;;;6.03;2.03;;;28.30;43.30;;;;;;5025979;28;20121;-52
2022/05/18 11:05:38;;;;;;;2.38;1.63;;;28.40;42.60;;;;;;5029517;28;20041;-52
2022/05/18 11:08:13;;;;;;;3.25;1.73;;;28.50;43.00;;;;;;5040093;28;20045;-52
2022/05/18 11:11:23;;;;;;;2.17;1.83;;;28.60;42.10;;;;;;5014286;28;20040;-52
2022/05/18 11:13:58;;;;;;;2.53;1.52;;;28.80;42.90;;;;;;5032181;28;20104;-50
2022/05/18 11:16:32;;;;;;;1.98;1.80;;;28.90;42.30;;;;;;5026611;28;20041;-48
2022/05/18 11:19:14;;;;;;;7.55;2.03;;;28.90;43.30;;;;;;5031184;28;20064;-52
2022/05/18 11:22:21;;;;;;;1.77;1.30;;;29.00;42.90;;;;;;5027779;28;20072;-53
2022/05/18 11:25:04;;;;;;;3.22;1.88;;;29.20;42.10;;;;;;5029495;28;20046;-53
2022/05/18 11:27:57;;;;;;;2.17;1.75;;;29.20;42.20;;;;;;5030616;28;20041;-53
2022/05/18 11:30:57;;;;;;;2.65;1.50;;;29.30;42.40;;;;;;5030946;28;20643;-51
2022/05/18 11:33:49;;;;;;;3.20;1.48;;;29.40;41.60;;;;;;5028600;28;20029;-52
2022/05/18 11:36:32;;;;;;;2.10;1.45;;;29.50;41.70;;;;;;5028067;28;20049;-50
2022/05/18 11:39:06;;;;;;;1.50;1.30;;;29.60;40.60;;;;;;5028279;28;20046;-53
2022/05/18 11:41:47;;;;;;;5.65;1.85;;;29.70;40.50;;;;;;5027543;28;20045;-50
2022/05/18 11:44:25;;;;;;;3.13;1.70;;;29.80;39.50;;;;;;5028184;28;20052;-50
2022/05/18 11:47:10;;;;;;;3.38;1.65;;;29.80;40.30;;;;;;5030627;28;20041;-53
2022/05/18 11:50:08;;;;;;;3.72;1.73;;;29.90;39.20;;;;;;5030698;28;20760;-53
2022/05/18 11:52:43;;;;;;;1.65;1.55;;;29.90;40.20;;;;;;5022692;28;20065;-53
2022/05/18 11:55:36;;;;;;;3.05;1.92;;;30.00;40.60;;;;;;5027469;28;20500;-53
2022/05/18 11:58:21;;;;;;;3.65;1.90;;;30.00;39.50;;;;;;5011532;28;20042;-53
2022/05/18 12:01:06;;;;;;;1.63;1.42;;;30.20;39.10;;;;;;5018213;28;20053;-53
2022/05/18 12:04:12;;;;;;;2.63;1.52;;;30.20;39.30;;;;;;5032391;28;20140;-53
2022/05/18 12:07:01;;;;;;;1.25;1.13;;;30.40;39.90;;;;;;5019102;28;20045;-53
2022/05/18 12:09:45;;;;;;;4.53;1.67;;;30.40;38.60;;;;;;5026771;28;20037;-53
2022/05/18 12:12:29;;;;;;;2.03;1.92;;;30.50;38.00;;;;;;5029317;28;20120;-53
2022/05/18 12:15:05;;;;;;;4.40;1.90;;;30.60;38.90;;;;;;5027637;28;20485;-53
2022/05/18 12:17:47;;;;;;;1.67;1.52;;;30.60;38.30;;;;;;5026427;28;20457;-53
2022/05/18 12:20:43;;;;;;;3.75;1.83;;;30.70;38.10;;;;;;5027492;28;20465;-51
2022/05/18 12:23:17;;;;;;;2.90;1.90;;;30.80;38.50;;;;;;5025399;28;20033;-53
2022/05/18 12:25:47;;;;;;;1.67;1.58;;;30.90;38.20;;;;;;5026601;28;20555;-52
2022/05/18 12:28:17;;;;;;;3.25;2.38;;;31.00;37.90;;;;;;5027682;28;20048;-52
2022/05/18 12:30:46;;;;;;;2.88;1.73;;;31.10;38.50;;;;;;5034100;28;20041;-53
2022/05/18 12:33:18;;;;;;;1.98;1.83;;;31.20;38.80;;;;;;5034422;28;20077;-53
2022/05/18 12:36:15;;;;;;;2.67;1.73;;;31.20;38.90;;;;;;5036512;28;20037;-53
2022/05/18 12:39:09;;;;;;;2.58;1.42;;;31.40;39.10;;;;;;5034173;28;20088;-49
2022/05/18 12:41:45;;;;;;;4.03;2.05;;;31.60;37.90;;;;;;5028903;28;20041;-53
2022/05/18 12:44:23;;;;;;;2.25;1.58;;;31.60;37.30;;;;;;5036704;28;20072;-52
2022/05/18 12:47:02;;;;;;;1.88;1.63;;;31.60;37.20;;;;;;5035622;28;20036;-53
2022/05/18 12:49:42;;;;;;;1.63;1.52;;;31.80;37.50;;;;;;5035697;28;20045;-53
2022/05/18 12:52:15;;;;;;;2.25;2.05;;;31.80;37.80;;;;;;5031271;28;20084;-52
2022/05/18 12:54:53;;;;;;;1.90;1.70;;;32.00;37.70;;;;;;5023997;28;20107;-53
2022/05/18 12:57:41;;;;;;;3.40;2.13;;;32.10;37.80;;;;;;5017148;28;20053;-52
2022/05/18 13:00:20;;;;;;;2.55;1.65;;;32.20;38.00;;;;;;5022119;28;20068;-53
2022/05/18 13:03:01;;;;;;;3.38;2.08;;;32.30;36.60;;;;;;5041985;28;20041;-52
2022/05/18 13:05:35;;;;;;;2.05;1.92;;;32.50;36.30;;;;;;5027326;28;20045;-53
2022/05/18 13:08:19;;;;;;;2.80;1.95;;;32.60;37.10;;;;;;5032228;28;20034;-52
2022/05/18 13:11:23;;;;;;;2.22;2.03;;;32.80;36.30;;;;;;5033565;28;20117;-52
2022/05/18 13:14:02;;;;;;;4.43;1.60;;;33.00;37.40;;;;;;5034354;28;20567;-50
2022/05/18 13:16:37;;;;;;;2.45;1.70;;;33.30;36.30;;;;;;5030659;28;20128;-49
2022/05/18 13:19:14;;;;;;;2.28;1.52;;;33.60;35.90;;;;;;5035864;28;20048;-50
2022/05/18 13:21:52;;;;;;;3.25;1.77;;;33.80;34.70;;;;;;5016113;28;20056;-53
2022/05/18 13:24:48;;;;;;;3.15;1.67;;;33.90;35.10;;;;;;5028726;28;20037;-53
2022/05/18 13:27:28;;;;;;;4.07;1.83;;;34.10;35.40;;;;;;5028150;28;20081;-55
2022/05/18 13:29:57;;;;;;;2.65;1.92;;;34.30;35.00;;;;;;5036746;28;20087;-53
2022/05/18 13:32:30;;;;;;;2.08;1.40;;;34.70;34.80;;;;;;5036673;28;20056;-53
2022/05/18 13:35:07;;;;;;;1.70;1.60;;;35.30;34.90;;;;;;5033884;28;20065;-52
2022/05/18 13:37:36;;;;;;;3.38;1.35;;;35.90;33.70;;;;;;5032136;28;20124;-53
2022/05/18 13:40:27;;;;;;;3.92;1.58;;;36.50;33.20;;;;;;5034364;28;20038;-54
2022/05/18 13:43:09;;;;;;;1.95;1.58;;;37.10;32.00;;;;;;5031020;28;20049;-53